»·PEaware :: N618ER KAVX-KSAN

N618ER :: KAVX-KSAN

FLIGHT INFORMATION

Flight Status: Arrived
Operator: Privately registered:
United States
More flights under this callsign
Pilot: Ryan E. (25987)
Aircraft: BEECH AIRCRAFT DEBONAIR BONANZA
(BE33)
More flights by this aircraft type
Origin: KAVX Catalina
United States
Destination: KSAN San Diego Intl-Lindbergh
United States
More flights between these airports :: More routes between these airports
Route: SXC V208 OCN V23 MZB
File this flight plan on PilotEdge
Remarks:
Altitude:
(Current/Filed)
5,000ft
Speed:
(Current/Filed)
150kts
Departed: 02-Feb-20 11:37 AM
Arrived: 02-Feb-20 12:28 PM
Distance/Time
Traveled:
74nm/0:51
Distance/Time
To Go:
Arrived

Flight Plot

Page will automatically refresh every two minutes.


Map Options




Map Legend


Flown Route
Filed Route
Departure Airport
Arrival Airport
Navaid (VOR, NDB)
Fix

Horizontal Profiles

Position Reports

Time Latitude Longitude Heading Altitude Ground
Speed
02-Feb-20 11:15 33.403605 -118.415725 142 1567ft 0kts
02-Feb-20 11:16 33.403605 -118.415725 142 1567ft 0kts
02-Feb-20 11:17 33.403605 -118.415725 142 1567ft 0kts
02-Feb-20 11:24 33.403605 -118.415725 142 1567ft 0kts
02-Feb-20 11:25 33.403605 -118.415725 142 1567ft 0kts
02-Feb-20 11:26 33.403605 -118.415725 142 1567ft 0kts
02-Feb-20 11:27 33.403605 -118.415725 142 1567ft 0kts
02-Feb-20 11:28 33.403605 -118.415725 142 1567ft 0kts
02-Feb-20 11:29 33.403605 -118.415725 142 1567ft 0kts
02-Feb-20 11:30 33.403605 -118.415725 142 1567ft 0kts
02-Feb-20 11:31 33.403605 -118.415725 142 1567ft 0kts
02-Feb-20 11:32 33.404285 -118.415023 352 1564ft 7kts
02-Feb-20 11:33 33.406179 -118.413079 55 1554ft 12kts
02-Feb-20 11:34 33.407007 -118.411672 51 1548ft 0kts
02-Feb-20 11:35 33.406942 -118.412505 236 1552ft 24kts
02-Feb-20 11:36 33.396659 -118.433258 249 2307ft 79kts
02-Feb-20 11:37 33.380430 -118.422848 121 3026ft 110kts
02-Feb-20 11:38 33.371455 -118.391027 101 4025ft 105kts
02-Feb-20 11:39 33.365270 -118.353909 101 4668ft 114kts
02-Feb-20 11:40 33.358731 -118.314131 101 5010ft 138kts
02-Feb-20 11:41 33.350861 -118.266379 101 4999ft 147kts
02-Feb-20 11:42 33.345474 -118.218305 99 4999ft 145kts
02-Feb-20 11:43 33.338944 -118.171127 100 5071ft 141kts
02-Feb-20 11:44 33.332235 -118.124233 100 5074ft 144kts
02-Feb-20 11:45 33.325322 -118.076671 100 5073ft 145kts
02-Feb-20 11:46 33.318287 -118.028632 100 5073ft 147kts
02-Feb-20 11:47 33.311078 -117.980181 99 5072ft 148kts
02-Feb-20 11:48 33.303873 -117.931294 99 5073ft 149kts
02-Feb-20 11:49 33.296668 -117.882365 99 5073ft 149kts
02-Feb-20 11:50 33.289503 -117.833333 99 5072ft 149kts
02-Feb-20 11:51 33.284107 -117.784054 96 5072ft 149kts
02-Feb-20 11:52 33.278672 -117.734804 97 5071ft 149kts
02-Feb-20 11:53 33.273039 -117.685655 97 5072ft 149kts
02-Feb-20 11:54 33.267271 -117.636351 97 5072ft 149kts
02-Feb-20 11:55 33.261486 -117.587282 97 5072ft 149kts
02-Feb-20 11:56 33.255649 -117.538278 97 5071ft 148kts
02-Feb-20 11:57 33.249871 -117.489569 96 5073ft 147kts
02-Feb-20 11:58 33.242872 -117.441344 108 5073ft 147kts
02-Feb-20 11:59 33.213582 -117.407889 141 5072ft 150kts
02-Feb-20 12:00 33.174122 -117.390043 156 5072ft 152kts
02-Feb-20 12:01 33.133873 -117.373379 157 5072ft 153kts
02-Feb-20 12:02 33.093616 -117.356836 157 5063ft 153kts
02-Feb-20 12:03 33.053095 -117.340365 157 5053ft 153kts
02-Feb-20 12:04 33.012726 -117.324000 157 5049ft 153kts
02-Feb-20 12:05 32.972313 -117.307551 157 5047ft 153kts
02-Feb-20 12:06 32.931682 -117.290996 157 5046ft 155kts
02-Feb-20 12:07 32.890569 -117.274241 157 5048ft 159kts
02-Feb-20 12:08 32.849799 -117.253958 154 5045ft 159kts
02-Feb-20 12:09 32.823631 -117.217718 102 5048ft 154kts
02-Feb-20 12:10 32.813786 -117.167922 102 5044ft 154kts
02-Feb-20 12:11 32.803966 -117.118190 102 5045ft 154kts
02-Feb-20 12:12 32.794063 -117.068340 102 5047ft 154kts
02-Feb-20 12:13 32.784100 -117.018551 101 5048ft 154kts
02-Feb-20 12:14 32.774104 -116.968858 101 5051ft 154kts
02-Feb-20 12:15 32.764075 -116.919142 101 5051ft 154kts
02-Feb-20 12:16 32.751464 -116.870591 128 5047ft 157kts
02-Feb-20 12:17 32.711182 -116.853846 194 5034ft 167kts
02-Feb-20 12:18 32.677187 -116.891818 219 5054ft 169kts
02-Feb-20 12:19 32.666544 -116.940448 303 4468ft 135kts
02-Feb-20 12:20 32.679653 -116.973058 291 3830ft 96kts
02-Feb-20 12:21 32.687900 -117.003582 287 3664ft 111kts
02-Feb-20 12:22 32.696745 -117.038858 287 3145ft 117kts
02-Feb-20 12:23 32.705745 -117.075483 286 2441ft 114kts
02-Feb-20 12:24 32.713733 -117.109469 282 1986ft 101kts
02-Feb-20 12:25 32.721892 -117.140363 284 1311ft 90kts
02-Feb-20 12:26 32.728691 -117.169100 282 413ft 86kts
02-Feb-20 12:27 32.733374 -117.187999 324 17ft 14kts
02-Feb-20 12:28 32.734047 -117.188050 19 17ft 1kts
02-Feb-20 12:29 32.733250 -117.183644 106 17ft 21kts
02-Feb-20 12:30 32.732817 -117.178976 25 17ft 0kts
02-Feb-20 12:31 32.732817 -117.178976 25 17ft 0kts
02-Feb-20 12:32 32.732817 -117.178976 25 17ft 0kts

Navigation Log

Ident Type
Flight plan parsing failed, navigation log unavailable